createdAt,value
2017-08-29T00:00:26.779Z,0
2017-08-29T00:01:26.837Z,0
2017-08-29T00:02:27.524Z,0
2017-08-29T00:03:27.564Z,0
2017-08-29T00:04:27.626Z,0
2017-08-29T00:05:27.706Z,0
2017-08-29T00:06:27.424Z,0
2017-08-29T00:07:27.785Z,0
2017-08-29T00:08:27.844Z,0
2017-08-29T00:09:27.908Z,0
2017-08-29T00:10:27.959Z,0
2017-08-29T00:11:28.020Z,0
2017-08-29T00:12:28.093Z,0
2017-08-29T00:13:28.132Z,0
2017-08-29T00:14:28.195Z,0
2017-08-29T00:15:28.254Z,0
2017-08-29T00:16:28.297Z,0
2017-08-29T00:17:28.356Z,0
2017-08-29T00:18:28.411Z,0
2017-08-29T00:19:28.477Z,0
2017-08-29T00:20:28.217Z,0
2017-08-29T00:21:28.571Z,0
2017-08-29T00:22:28.637Z,0
2017-08-29T00:23:28.720Z,0
2017-08-29T00:24:28.758Z,0
2017-08-29T00:25:28.794Z,0
2017-08-29T00:26:28.858Z,0
2017-08-29T00:27:28.912Z,0
2017-08-29T00:28:28.970Z,0
2017-08-29T00:29:29.023Z,0
2017-08-29T00:30:29.076Z,0
2017-08-29T00:31:29.131Z,0
2017-08-29T00:32:29.194Z,0
2017-08-29T00:33:29.241Z,0
2017-08-29T00:34:29.310Z,0
2017-08-29T00:35:29.373Z,0
2017-08-29T00:36:29.413Z,0
2017-08-29T00:37:29.477Z,0
2017-08-29T00:38:29.521Z,0
2017-08-29T00:39:29.585Z,0
2017-08-29T00:40:29.632Z,0
2017-08-29T00:41:29.698Z,0
2017-08-29T00:42:29.749Z,0
2017-08-29T00:43:29.805Z,0
2017-08-29T00:44:29.863Z,0
2017-08-29T00:45:29.926Z,0
2017-08-29T00:46:29.975Z,0
2017-08-29T00:47:29.721Z,0
2017-08-29T00:48:30.096Z,0
2017-08-29T00:49:30.150Z,0
2017-08-29T00:50:29.895Z,0
2017-08-29T00:51:29.948Z,0
2017-08-29T00:52:30.311Z,0
2017-08-29T00:53:30.368Z,0
2017-08-29T00:54:30.422Z,0
2017-08-29T00:55:30.483Z,0
2017-08-29T00:56:30.542Z,0
2017-08-29T00:57:30.281Z,0
2017-08-29T00:58:30.655Z,0
2017-08-29T00:59:30.698Z,0
2017-08-29T01:00:30.766Z,0
2017-08-29T01:01:30.816Z,0
2017-08-29T01:02:30.908Z,0
2017-08-29T01:03:30.928Z,0
2017-08-29T01:04:31.000Z,0
2017-08-29T01:05:31.038Z,0
2017-08-29T01:06:31.090Z,0
2017-08-29T01:07:31.160Z,0
2017-08-29T01:08:31.219Z,0
2017-08-29T01:09:31.263Z,0
2017-08-29T01:10:31.328Z,0
2017-08-29T01:11:31.375Z,0
2017-08-29T01:12:31.428Z,0
2017-08-29T01:13:31.490Z,0
2017-08-29T01:14:31.240Z,0
2017-08-29T01:15:31.606Z,0
2017-08-29T01:16:31.655Z,0
2017-08-29T01:17:31.711Z,0
2017-08-29T01:18:31.759Z,0
2017-08-29T01:19:31.830Z,0
2017-08-29T01:20:31.874Z,0
2017-08-29T01:21:31.957Z,0
2017-08-29T01:22:31.997Z,0
2017-08-29T01:23:31.738Z,0
2017-08-29T01:24:31.779Z,0
2017-08-29T01:25:32.156Z,0
2017-08-29T01:26:32.203Z,0
2017-08-29T01:27:31.948Z,0
2017-08-29T01:28:32.325Z,0
2017-08-29T01:29:32.386Z,0
2017-08-29T01:30:32.432Z,0
2017-08-29T01:31:32.498Z,0
2017-08-29T01:32:32.229Z,0
2017-08-29T01:33:32.603Z,0
2017-08-29T01:34:32.661Z,0
2017-08-29T01:35:32.705Z,0
2017-08-29T01:36:32.768Z,0
2017-08-29T01:37:32.820Z,0
2017-08-29T01:38:32.887Z,0
2017-08-29T01:39:32.941Z,0
2017-08-29T01:40:33.004Z,0
2017-08-29T01:41:33.048Z,0
2017-08-29T01:42:33.105Z,0
2017-08-29T01:43:33.163Z,0
2017-08-29T01:44:33.219Z,0
2017-08-29T01:45:32.955Z,0
2017-08-29T01:46:33.332Z,0
2017-08-29T01:47:33.385Z,0
2017-08-29T01:48:33.132Z,0
2017-08-29T01:49:33.492Z,0
2017-08-29T01:50:33.559Z,0
2017-08-29T01:51:33.612Z,0
2017-08-29T01:52:33.670Z,0
2017-08-29T01:53:33.716Z,0
2017-08-29T01:54:33.793Z,0
2017-08-29T01:55:33.827Z,0
2017-08-29T01:56:33.882Z,0
2017-08-29T01:57:33.627Z,0
2017-08-29T01:58:33.992Z,0
2017-08-29T01:59:34.047Z,0
2017-08-29T02:00:34.118Z,0
2017-08-29T02:01:34.170Z,0
2017-08-29T02:02:34.222Z,0
2017-08-29T02:03:34.271Z,0
2017-08-29T02:04:34.326Z,0
2017-08-29T02:05:34.382Z,0
2017-08-29T02:06:34.440Z,0
2017-08-29T02:07:34.505Z,0
2017-08-29T02:08:34.558Z,0
2017-08-29T02:09:34.611Z,0
2017-08-29T02:10:34.679Z,0
2017-08-29T02:11:34.729Z,0
2017-08-29T02:12:34.771Z,0
2017-08-29T02:13:34.849Z,0
2017-08-29T02:14:34.892Z,0
2017-08-29T02:15:34.638Z,0
2017-08-29T02:16:35.004Z,0
2017-08-29T02:17:35.063Z,0
2017-08-29T02:18:34.802Z,0
2017-08-29T02:19:35.171Z,0
2017-08-29T02:20:35.231Z,0
2017-08-29T02:21:35.282Z,0
2017-08-29T02:22:35.337Z,0
2017-08-29T02:23:35.399Z,0
2017-08-29T02:24:35.456Z,0
2017-08-29T02:25:35.511Z,0
2017-08-29T02:26:35.564Z,0
2017-08-29T02:27:35.608Z,0
2017-08-29T02:28:35.674Z,0
2017-08-29T02:29:35.413Z,0
2017-08-29T02:30:35.791Z,0
2017-08-29T02:31:35.844Z,0
2017-08-29T02:32:35.895Z,0
2017-08-29T02:33:35.953Z,0
2017-08-29T02:34:35.998Z,0
2017-08-29T02:35:36.057Z,0
2017-08-29T02:36:36.123Z,0
2017-08-29T02:37:36.176Z,0
2017-08-29T02:38:36.242Z,0
2017-08-29T02:39:36.301Z,0
2017-08-29T02:40:36.337Z,0
2017-08-29T02:41:36.395Z,0
2017-08-29T02:42:36.444Z,0
2017-08-29T02:43:36.511Z,0
2017-08-29T02:44:36.249Z,0
2017-08-29T02:45:36.307Z,0
2017-08-29T02:46:36.674Z,0
2017-08-29T02:47:36.734Z,0
2017-08-29T02:48:36.785Z,0
2017-08-29T02:49:36.848Z,0
2017-08-29T02:50:36.892Z,0
2017-08-29T02:51:36.652Z,0
2017-08-29T02:52:37.009Z,0
2017-08-29T02:53:37.066Z,0
2017-08-29T02:54:37.129Z,0
2017-08-29T02:55:37.184Z,0
2017-08-29T02:56:37.222Z,0
2017-08-29T02:57:37.283Z,0
2017-08-29T02:58:37.352Z,0
2017-08-29T02:59:37.407Z,0
2017-08-29T03:00:37.454Z,0
2017-08-29T03:01:37.512Z,0
2017-08-29T03:02:37.575Z,0
2017-08-29T03:03:37.623Z,0
2017-08-29T03:04:37.380Z,0
2017-08-29T03:05:37.740Z,0
2017-08-29T03:06:37.786Z,0
2017-08-29T03:07:37.843Z,0
2017-08-29T03:08:37.899Z,0
2017-08-29T03:09:37.950Z,0
2017-08-29T03:10:38.012Z,0
2017-08-29T03:11:37.753Z,0
2017-08-29T03:12:38.123Z,0
2017-08-29T03:13:38.168Z,0
2017-08-29T03:14:38.235Z,0
2017-08-29T03:15:38.289Z,0
2017-08-29T03:16:38.341Z,0
2017-08-29T03:17:38.085Z,0
2017-08-29T03:18:38.457Z,0
2017-08-29T03:19:38.514Z,0
2017-08-29T03:20:38.567Z,0
2017-08-29T03:21:38.625Z,0
2017-08-29T03:22:38.671Z,0
2017-08-29T03:23:38.734Z,0
2017-08-29T03:24:38.782Z,0
2017-08-29T03:25:38.850Z,0
2017-08-29T03:26:38.894Z,0
2017-08-29T03:27:38.654Z,0
2017-08-29T03:28:39.013Z,0
2017-08-29T03:29:39.073Z,0
2017-08-29T03:30:39.130Z,0
2017-08-29T03:31:39.177Z,0
2017-08-29T03:32:38.929Z,0
2017-08-29T03:33:39.310Z,0
2017-08-29T03:34:39.346Z,0
2017-08-29T03:35:39.100Z,0
2017-08-29T03:36:39.461Z,0
2017-08-29T03:37:39.511Z,0
2017-08-29T03:38:39.578Z,0
2017-08-29T03:39:39.628Z,0
2017-08-29T03:40:39.694Z,0
2017-08-29T03:41:39.433Z,0
2017-08-29T03:42:39.794Z,0
2017-08-29T03:43:39.538Z,0
2017-08-29T03:44:39.592Z,0
2017-08-29T03:45:39.964Z,0
2017-08-29T03:46:40.017Z,0
2017-08-29T03:47:40.071Z,0
2017-08-29T03:48:40.132Z,0
2017-08-29T03:49:40.188Z,0
2017-08-29T03:50:40.237Z,0
2017-08-29T03:51:40.297Z,0
2017-08-29T03:52:40.356Z,0
2017-08-29T03:53:40.401Z,0
2017-08-29T03:54:40.465Z,0
2017-08-29T03:55:40.527Z,0
2017-08-29T03:56:40.575Z,0
2017-08-29T03:57:40.637Z,0
2017-08-29T03:58:40.686Z,0
2017-08-29T03:59:40.747Z,0
2017-08-29T04:00:40.797Z,0
2017-08-29T04:01:40.590Z,0
2017-08-29T04:02:40.919Z,0
2017-08-29T04:03:40.965Z,0
2017-08-29T04:04:41.023Z,0
2017-08-29T04:05:41.078Z,0
2017-08-29T04:06:41.129Z,0
2017-08-29T04:07:41.195Z,0
2017-08-29T04:08:41.245Z,0
2017-08-29T04:09:41.310Z,0
2017-08-29T04:10:41.359Z,0
2017-08-29T04:11:41.413Z,0
2017-08-29T04:12:41.469Z,0
2017-08-29T04:13:41.527Z,0
2017-08-29T04:14:41.571Z,0
2017-08-29T04:15:41.641Z,0
2017-08-29T04:16:41.700Z,0
2017-08-29T04:17:41.430Z,4
2017-08-29T04:18:41.514Z,4
2017-08-29T04:19:41.862Z,4
2017-08-29T04:20:41.912Z,0
2017-08-29T04:21:41.988Z,4
2017-08-29T04:22:41.715Z,4
2017-08-29T04:23:42.076Z,4
2017-08-29T04:24:42.147Z,8
2017-08-29T04:25:42.189Z,4
2017-08-29T04:26:42.255Z,4
2017-08-29T04:27:42.308Z,8
2017-08-29T04:28:42.365Z,4
2017-08-29T04:29:42.428Z,8
2017-08-29T04:30:42.167Z,12
2017-08-29T04:31:42.220Z,8
2017-08-29T04:32:42.599Z,12
2017-08-29T04:33:42.642Z,12
2017-08-29T04:34:42.697Z,16
2017-08-29T04:35:42.747Z,16
2017-08-29T04:36:42.814Z,20
2017-08-29T04:37:42.557Z,20
2017-08-29T04:38:42.601Z,20
2017-08-29T04:39:42.977Z,24
2017-08-29T04:40:42.718Z,24
2017-08-29T04:41:43.077Z,24
2017-08-29T04:42:43.138Z,28
2017-08-29T04:43:43.200Z,28
2017-08-29T04:44:42.944Z,32
2017-08-29T04:45:43.000Z,32
2017-08-29T04:46:43.369Z,36
2017-08-29T04:47:43.431Z,40
2017-08-29T04:48:43.473Z,44
2017-08-29T04:49:43.534Z,52
2017-08-29T04:50:43.589Z,52
2017-08-29T04:51:43.655Z,56
2017-08-29T04:52:43.699Z,60
2017-08-29T04:53:43.756Z,60
2017-08-29T04:54:43.817Z,64
2017-08-29T04:55:43.875Z,64
2017-08-29T04:56:43.915Z,68
2017-08-29T04:57:43.980Z,72
2017-08-29T04:58:44.041Z,72
2017-08-29T04:59:44.097Z,76
2017-08-29T05:00:44.144Z,76
2017-08-29T05:01:44.200Z,80
2017-08-29T05:02:43.948Z,80
2017-08-29T05:03:44.313Z,84
2017-08-29T05:04:44.376Z,88
2017-08-29T05:05:44.432Z,92
2017-08-29T05:06:44.480Z,92
2017-08-29T05:07:44.539Z,100
2017-08-29T05:08:44.595Z,104
2017-08-29T05:09:44.653Z,104
2017-08-29T05:10:44.701Z,108
2017-08-29T05:11:44.765Z,112
2017-08-29T05:12:44.806Z,112
2017-08-29T05:13:44.871Z,116
2017-08-29T05:14:44.932Z,120
2017-08-29T05:15:44.984Z,124
2017-08-29T05:16:45.043Z,128
2017-08-29T05:17:45.297Z,128
2017-08-29T05:18:45.358Z,136
2017-08-29T05:19:45.208Z,136
2017-08-29T05:20:45.258Z,140
2017-08-29T05:21:45.312Z,140
2017-08-29T05:22:45.363Z,144
2017-08-29T05:23:45.633Z,148
2017-08-29T05:24:45.484Z,152
2017-08-29T05:25:45.543Z,156
2017-08-29T05:26:45.596Z,156
2017-08-29T05:27:45.644Z,156
2017-08-29T05:28:45.591Z,160
2017-08-29T05:29:45.771Z,164
2017-08-29T05:30:45.815Z,164
2017-08-29T05:31:45.878Z,168
2017-08-29T05:32:45.620Z,168
2017-08-29T05:33:45.985Z,168
2017-08-29T05:34:46.053Z,172
2017-08-29T05:35:46.108Z,176
2017-08-29T05:36:46.157Z,172
2017-08-29T05:37:46.218Z,176
2017-08-29T05:38:46.273Z,176
2017-08-29T05:39:46.017Z,180
2017-08-29T05:40:46.372Z,180
2017-08-29T05:41:46.129Z,180
2017-08-29T05:42:46.485Z,184
2017-08-29T05:43:46.241Z,184
2017-08-29T05:44:46.281Z,188
2017-08-29T05:45:46.653Z,188
2017-08-29T05:46:46.400Z,192
2017-08-29T05:47:46.777Z,188
2017-08-29T05:48:46.827Z,196
2017-08-29T05:49:46.872Z,196
2017-08-29T05:50:46.624Z,200
2017-08-29T05:51:46.989Z,200
2017-08-29T05:52:47.047Z,200
2017-08-29T05:53:47.101Z,204
2017-08-29T05:54:47.158Z,204
2017-08-29T05:55:47.417Z,212
2017-08-29T05:56:47.479Z,216
2017-08-29T05:57:47.026Z,220
2017-08-29T05:58:47.370Z,224
2017-08-29T05:59:47.125Z,224
2017-08-29T06:00:47.484Z,228
2017-08-29T06:01:47.237Z,232
2017-08-29T06:02:47.613Z,228
2017-08-29T06:03:47.659Z,232
2017-08-29T06:04:47.405Z,232
2017-08-29T06:05:47.459Z,236
2017-08-29T06:06:47.823Z,236
2017-08-29T06:07:47.885Z,240
2017-08-29T06:08:47.938Z,240
2017-08-29T06:09:47.987Z,244
2017-08-29T06:10:48.055Z,244
2017-08-29T06:11:48.106Z,248
2017-08-29T06:12:48.153Z,248
2017-08-29T06:13:48.215Z,248
2017-08-29T06:14:48.283Z,252
2017-08-29T06:15:48.324Z,256
2017-08-29T06:16:48.381Z,256
2017-08-29T06:17:48.440Z,260
2017-08-29T06:18:48.502Z,256
2017-08-29T06:19:48.554Z,264
2017-08-29T06:20:48.612Z,264
2017-08-29T06:21:48.671Z,268
2017-08-29T06:22:48.720Z,268
2017-08-29T06:23:48.768Z,272
2017-08-29T06:24:48.841Z,276
2017-08-29T06:25:48.885Z,280
2017-08-29T06:26:48.631Z,280
2017-08-29T06:27:49.007Z,284
2017-08-29T06:28:49.253Z,288
2017-08-29T06:29:49.114Z,288
2017-08-29T06:30:49.169Z,288
2017-08-29T06:31:48.912Z,292
2017-08-29T06:32:49.275Z,292
2017-08-29T06:33:49.534Z,296
2017-08-29T06:34:49.591Z,292
2017-08-29T06:35:49.450Z,296
2017-08-29T06:36:49.509Z,300
2017-08-29T06:37:49.560Z,296
2017-08-29T06:38:49.605Z,300
2017-08-29T06:39:49.665Z,300
2017-08-29T06:40:49.727Z,304
2017-08-29T06:41:49.781Z,304
2017-08-29T06:42:49.830Z,304
2017-08-29T06:43:49.899Z,308
2017-08-29T06:44:49.636Z,308
2017-08-29T06:45:50.012Z,308
2017-08-29T06:46:50.064Z,312
2017-08-29T06:47:50.131Z,312
2017-08-29T06:48:49.870Z,312
2017-08-29T06:49:50.240Z,316
2017-08-29T06:50:49.973Z,320
2017-08-29T06:51:50.029Z,320
2017-08-29T06:52:50.084Z,324
2017-08-29T06:53:50.467Z,328
2017-08-29T06:54:50.501Z,328
2017-08-29T06:55:50.259Z,332
2017-08-29T06:56:50.625Z,332
2017-08-29T06:57:50.668Z,336
2017-08-29T06:58:50.734Z,340
2017-08-29T06:59:50.787Z,340
2017-08-29T07:00:50.846Z,344
2017-08-29T07:01:50.893Z,348
2017-08-29T07:02:50.981Z,352
2017-08-29T07:03:51.239Z,356
2017-08-29T07:04:51.073Z,356
2017-08-29T07:05:51.117Z,360
2017-08-29T07:06:51.186Z,364
2017-08-29T07:07:51.432Z,364
2017-08-29T07:08:51.319Z,372
2017-08-29T07:09:51.350Z,376
2017-08-29T07:10:51.404Z,380
2017-08-29T07:11:51.458Z,384
2017-08-29T07:13:05.418Z,392
2017-08-29T07:13:51.576Z,396
2017-08-29T07:14:51.620Z,400
2017-08-29T07:15:51.689Z,408
2017-08-29T07:16:51.739Z,412
2017-08-29T07:17:51.791Z,412
2017-08-29T07:18:51.836Z,420
2017-08-29T07:19:51.897Z,424
2017-08-29T07:20:51.961Z,428
2017-08-29T07:21:52.018Z,432
2017-08-29T07:22:51.764Z,436
2017-08-29T07:23:52.129Z,440
2017-08-29T07:24:52.179Z,440
2017-08-29T07:25:52.230Z,448
2017-08-29T07:26:52.295Z,452
2017-08-29T07:27:52.036Z,452
2017-08-29T07:28:52.102Z,452
2017-08-29T07:29:52.453Z,460
2017-08-29T07:30:52.525Z,464
2017-08-29T07:31:52.581Z,468
2017-08-29T07:32:52.634Z,472
2017-08-29T07:33:52.682Z,472
2017-08-29T07:34:52.770Z,480
2017-08-29T07:35:52.803Z,484
2017-08-29T07:36:52.859Z,488
2017-08-29T07:37:52.917Z,492
2017-08-29T07:38:52.965Z,496
2017-08-29T07:39:53.028Z,500
2017-08-29T07:40:53.081Z,508
2017-08-29T07:41:52.823Z,512
2017-08-29T07:42:53.190Z,516
2017-08-29T07:43:53.262Z,516
2017-08-29T07:44:53.305Z,524
2017-08-29T07:45:53.569Z,528
2017-08-29T07:46:53.609Z,532
2017-08-29T07:47:53.156Z,536
2017-08-29T07:48:53.525Z,540
2017-08-29T07:49:53.585Z,540
2017-08-29T07:50:53.642Z,544
2017-08-29T07:52:07.334Z,552
2017-08-29T07:52:53.945Z,552
2017-08-29T07:53:53.810Z,556
2017-08-29T07:54:53.857Z,560
2017-08-29T07:55:53.931Z,564
2017-08-29T07:56:53.987Z,564
2017-08-29T07:57:54.225Z,572
2017-08-29T07:58:54.090Z,576
2017-08-29T07:59:54.153Z,580
2017-08-29T08:00:54.206Z,584
2017-08-29T08:01:54.266Z,588
2017-08-29T08:02:54.351Z,592
2017-08-29T08:03:54.063Z,596
2017-08-29T08:04:54.426Z,600
2017-08-29T08:05:54.481Z,600
2017-08-29T08:06:54.225Z,604
2017-08-29T08:07:54.593Z,608
2017-08-29T08:08:54.657Z,612
2017-08-29T08:09:54.711Z,612
2017-08-29T08:10:54.446Z,616
2017-08-29T08:11:54.810Z,628
2017-08-29T08:12:54.877Z,628
2017-08-29T08:13:54.933Z,632
2017-08-29T08:14:54.997Z,640
2017-08-29T08:15:55.045Z,640
2017-08-29T08:16:55.089Z,644
2017-08-29T08:17:55.162Z,648
2017-08-29T08:18:55.216Z,652
2017-08-29T08:19:55.274Z,656
2017-08-29T08:20:55.339Z,660
2017-08-29T08:21:55.386Z,664
2017-08-29T08:22:55.428Z,668
2017-08-29T08:23:55.495Z,672
2017-08-29T08:24:55.231Z,676
2017-08-29T08:25:55.813Z,680
2017-08-29T08:26:55.346Z,684
2017-08-29T08:27:55.713Z,688
2017-08-29T08:28:55.475Z,696
2017-08-29T08:30:09.457Z,696
2017-08-29T08:30:56.110Z,704
2017-08-29T08:31:55.941Z,704
2017-08-29T08:32:55.986Z,708
2017-08-29T08:33:56.043Z,716
2017-08-29T08:34:56.108Z,716
2017-08-29T08:35:56.161Z,724
2017-08-29T08:36:55.914Z,724
2017-08-29T08:37:56.282Z,728
2017-08-29T08:38:56.333Z,740
2017-08-29T08:39:56.398Z,744
2017-08-29T08:40:56.456Z,748
2017-08-29T08:41:56.509Z,756
2017-08-29T08:42:56.548Z,760
2017-08-29T08:43:56.607Z,764
2017-08-29T08:44:56.350Z,768
2017-08-29T08:45:56.716Z,772
2017-08-29T08:46:56.778Z,776
2017-08-29T08:47:56.841Z,780
2017-08-29T08:48:56.905Z,780
2017-08-29T08:49:56.940Z,788
2017-08-29T08:50:56.690Z,792
2017-08-29T08:51:57.066Z,796
2017-08-29T08:52:56.798Z,800
2017-08-29T08:53:57.170Z,804
2017-08-29T08:54:56.910Z,808
2017-08-29T08:55:56.974Z,812
2017-08-29T08:56:57.332Z,816
2017-08-29T08:57:57.091Z,824
2017-08-29T08:58:57.449Z,824
2017-08-29T08:59:57.205Z,828
2017-08-29T09:00:57.563Z,836
2017-08-29T09:01:57.631Z,836
2017-08-29T09:02:57.670Z,840
2017-08-29T09:03:57.735Z,844
2017-08-29T09:05:11.111Z,848
2017-08-29T09:05:57.846Z,848
2017-08-29T09:06:57.907Z,852
2017-08-29T09:07:57.654Z,856
2017-08-29T09:08:58.221Z,856
2017-08-29T09:09:58.275Z,860
2017-08-29T09:10:58.125Z,868
2017-08-29T09:11:58.187Z,872
2017-08-29T09:12:58.249Z,876
2017-08-29T09:13:58.296Z,880
2017-08-29T09:14:58.348Z,888
2017-08-29T09:15:58.417Z,892
2017-08-29T09:17:13.086Z,896
2017-08-29T09:17:58.513Z,900
2017-08-29T09:18:58.578Z,904
2017-08-29T09:19:58.631Z,908
2017-08-29T09:20:58.696Z,912
2017-08-29T09:21:58.745Z,920
2017-08-29T09:22:58.799Z,924
2017-08-29T09:23:58.858Z,924
2017-08-29T09:24:58.605Z,932
2017-08-29T09:25:58.966Z,932
2017-08-29T09:26:59.016Z,940
2017-08-29T09:27:58.768Z,940
2017-08-29T09:28:59.136Z,944
2017-08-29T09:29:59.184Z,952
2017-08-29T09:30:59.248Z,956
2017-08-29T09:31:59.308Z,964
2017-08-29T09:32:59.371Z,964
2017-08-29T09:33:59.414Z,968
2017-08-29T09:34:59.466Z,972
2017-08-29T09:35:59.529Z,976
2017-08-29T09:36:59.267Z,980
2017-08-29T09:37:59.647Z,984
2017-08-29T09:38:59.694Z,988
2017-08-29T09:39:59.744Z,992
2017-08-29T09:40:59.800Z,1000
2017-08-29T09:41:59.862Z,1004
2017-08-29T09:42:59.926Z,1004
2017-08-29T09:43:59.973Z,1012
2017-08-29T09:45:00.024Z,1016
2017-08-29T09:46:00.082Z,1024
2017-08-29T09:47:00.144Z,1024
2017-08-29T09:48:00.198Z,1028
2017-08-29T09:49:00.263Z,1036
2017-08-29T09:50:00.316Z,1032
2017-08-29T09:51:00.058Z,1040
2017-08-29T09:52:00.115Z,1048
2017-08-29T09:53:00.164Z,1048
2017-08-29T09:54:00.524Z,1056
2017-08-29T09:55:00.584Z,1060
2017-08-29T09:56:00.654Z,1064
2017-08-29T09:57:00.384Z,1068
2017-08-29T09:58:00.444Z,1072
2017-08-29T09:59:00.809Z,1076
2017-08-29T10:00:00.867Z,1084
2017-08-29T10:01:00.921Z,1092
2017-08-29T10:02:00.979Z,1092
2017-08-29T10:03:01.043Z,1100
2017-08-29T10:04:01.090Z,1100
2017-08-29T10:05:01.153Z,1104
2017-08-29T10:06:01.197Z,1112
2017-08-29T10:07:01.262Z,1116
2017-08-29T10:08:01.305Z,1120
2017-08-29T10:09:01.375Z,1124
2017-08-29T10:10:01.107Z,1128
2017-08-29T10:11:01.474Z,1132
2017-08-29T10:12:01.227Z,1140
2017-08-29T10:13:01.278Z,1144
2017-08-29T10:14:01.650Z,1148
2017-08-29T10:15:01.701Z,1152
2017-08-29T10:16:01.761Z,1156
2017-08-29T10:17:01.815Z,1160
2017-08-29T10:18:01.567Z,1160
2017-08-29T10:19:01.614Z,1164
2017-08-29T10:20:01.983Z,1172
2017-08-29T10:21:02.042Z,1176
2017-08-29T10:22:02.089Z,1176
2017-08-29T10:23:02.151Z,1180
2017-08-29T10:24:02.212Z,1184
2017-08-29T10:25:01.960Z,1188
2017-08-29T10:26:02.326Z,1192
2017-08-29T10:27:02.076Z,1192
2017-08-29T10:28:02.126Z,1188
2017-08-29T10:29:01.862Z,1196
2017-08-29T10:30:02.537Z,1200
2017-08-29T10:31:02.600Z,1200
2017-08-29T10:32:02.657Z,1208
2017-08-29T10:33:02.712Z,1204
2017-08-29T10:34:02.780Z,1204
2017-08-29T10:35:02.822Z,1208
2017-08-29T10:36:02.884Z,1212
2017-08-29T10:37:02.934Z,1212
2017-08-29T10:38:03.005Z,1216
2017-08-29T10:39:02.736Z,1216
2017-08-29T10:40:03.110Z,1220
2017-08-29T10:41:03.163Z,1220
2017-08-29T10:42:02.916Z,1220
2017-08-29T10:43:03.269Z,1224
2017-08-29T10:44:03.337Z,1228
2017-08-29T10:45:03.393Z,1228
2017-08-29T10:46:03.439Z,1232
2017-08-29T10:47:03.491Z,1228
2017-08-29T10:48:03.564Z,1228
2017-08-29T10:49:03.622Z,1232
2017-08-29T10:50:03.680Z,1232
2017-08-29T10:51:03.742Z,1232
2017-08-29T10:52:03.783Z,1236
2017-08-29T10:53:03.836Z,1236
2017-08-29T10:54:03.902Z,1236
2017-08-29T10:55:03.647Z,1240
2017-08-29T10:56:03.697Z,1240
2017-08-29T10:57:04.069Z,1240
2017-08-29T10:58:04.111Z,1240
2017-08-29T10:59:04.172Z,1244
2017-08-29T11:00:04.231Z,1244
2017-08-29T11:01:04.288Z,1248
2017-08-29T11:02:04.354Z,1244
2017-08-29T11:03:04.404Z,1244
2017-08-29T11:04:04.460Z,1248
2017-08-29T11:05:04.514Z,1248
2017-08-29T11:06:04.581Z,1252
2017-08-29T11:07:04.630Z,1248
2017-08-29T11:08:04.685Z,1248
2017-08-29T11:09:04.752Z,1252
2017-08-29T11:10:04.794Z,1248
2017-08-29T11:11:04.861Z,1248
2017-08-29T11:12:04.594Z,1240
2017-08-29T11:13:04.953Z,1228
2017-08-29T11:14:04.705Z,1232
2017-08-29T11:15:04.773Z,1236
2017-08-29T11:16:05.138Z,1236
2017-08-29T11:17:05.201Z,1236
2017-08-29T11:18:04.933Z,1232
2017-08-29T11:19:04.996Z,1236
2017-08-29T11:20:05.056Z,1232
2017-08-29T11:21:05.403Z,1240
2017-08-29T11:22:05.465Z,1240
2017-08-29T11:23:05.521Z,1256
2017-08-29T11:24:05.266Z,1252
2017-08-29T11:25:05.023Z,1256
2017-08-29T11:26:05.700Z,1256
2017-08-29T11:27:05.748Z,1256
2017-08-29T11:28:05.498Z,1256
2017-08-29T11:29:05.875Z,1260
2017-08-29T11:30:05.600Z,1260
2017-08-29T11:31:05.987Z,1260
2017-08-29T11:32:06.180Z,1256
2017-08-29T11:33:05.782Z,1264
2017-08-29T11:34:05.838Z,1260
2017-08-29T11:35:06.201Z,1264
2017-08-29T11:36:06.265Z,1256
2017-08-29T11:37:06.312Z,1256
2017-08-29T11:38:06.361Z,1260
2017-08-29T11:39:06.422Z,1264
2017-08-29T11:40:06.500Z,1264
2017-08-29T11:41:06.541Z,1264
2017-08-29T11:42:06.614Z,1268
2017-08-29T11:43:06.650Z,1264
2017-08-29T11:44:06.699Z,1264
2017-08-29T11:45:06.754Z,1264
2017-08-29T11:46:06.810Z,1268
2017-08-29T11:47:06.870Z,1272
2017-08-29T11:48:06.935Z,1276
2017-08-29T11:49:06.995Z,1272
2017-08-29T11:50:07.062Z,1280
2017-08-29T11:51:07.097Z,1288
2017-08-29T11:52:07.164Z,1292
2017-08-29T11:53:06.898Z,1304
2017-08-29T11:54:06.959Z,1348
2017-08-29T11:55:07.332Z,5452
2017-08-29T11:56:07.071Z,17160
2017-08-29T11:57:07.121Z,16820
2017-08-29T11:58:07.492Z,6016
2017-08-29T11:59:07.549Z,1432
2017-08-29T12:00:07.610Z,1420
2017-08-29T12:01:07.678Z,1420
2017-08-29T12:02:07.739Z,1392
2017-08-29T12:03:07.778Z,1396
2017-08-29T12:04:07.844Z,1400
2017-08-29T12:05:07.571Z,1396
2017-08-29T12:06:07.325Z,1396
2017-08-29T12:07:07.693Z,1400
2017-08-29T12:08:08.051Z,1396
2017-08-29T12:09:08.132Z,1380
2017-08-29T12:10:07.856Z,1380
2017-08-29T12:11:08.222Z,1392
2017-08-29T12:12:07.656Z,1448
2017-08-29T12:13:08.346Z,1364
2017-08-29T12:14:08.399Z,1340
2017-08-29T12:15:08.659Z,1336
2017-08-29T12:16:08.508Z,1320
2017-08-29T12:17:08.562Z,1312
2017-08-29T12:18:08.617Z,1316
2017-08-29T12:19:08.679Z,1284
2017-08-29T12:20:08.729Z,1284
2017-08-29T12:21:08.799Z,1272
2017-08-29T12:22:08.835Z,1264
2017-08-29T12:23:08.916Z,1260
2017-08-29T12:24:08.666Z,1264
2017-08-29T12:25:09.018Z,1272
2017-08-29T12:26:09.078Z,1240
2017-08-29T12:27:09.132Z,1220
2017-08-29T12:28:09.182Z,1212
2017-08-29T12:29:08.934Z,1204
2017-08-29T12:30:08.683Z,1196
2017-08-29T12:31:09.052Z,1192
2017-08-29T12:32:09.097Z,1208
2017-08-29T12:33:09.469Z,1204
2017-08-29T12:34:09.524Z,1168
2017-08-29T12:35:09.579Z,1168
2017-08-29T12:36:09.648Z,1176
2017-08-29T12:37:09.068Z,2484
2017-08-29T12:38:09.754Z,3976
2017-08-29T12:39:09.501Z,1288
2017-08-29T12:40:09.866Z,1176
2017-08-29T12:41:09.604Z,1184
2017-08-29T12:42:09.975Z,1320
2017-08-29T12:43:10.034Z,1176
2017-08-29T12:44:10.096Z,1120
2017-08-29T12:45:09.833Z,1116
2017-08-29T12:46:10.206Z,1108
2017-08-29T12:47:10.271Z,1108
2017-08-29T12:48:09.998Z,1128
2017-08-29T12:49:10.375Z,868
2017-08-29T12:50:10.420Z,1112
2017-08-29T12:51:10.473Z,1092
2017-08-29T12:52:10.539Z,1084
2017-08-29T12:53:10.600Z,1076
2017-08-29T12:54:10.344Z,1064
2017-08-29T12:55:10.714Z,1056
2017-08-29T12:56:10.465Z,1048
2017-08-29T12:57:10.814Z,1044
2017-08-29T12:58:10.880Z,1036
2017-08-29T12:59:10.934Z,1028
2017-08-29T13:00:10.684Z,1024
2017-08-29T13:01:11.046Z,1020
2017-08-29T13:02:10.791Z,1012
2017-08-29T13:03:11.162Z,1004
2017-08-29T13:04:11.213Z,1000
2017-08-29T13:05:10.972Z,1040
2017-08-29T13:06:11.335Z,992
2017-08-29T13:07:11.380Z,980
2017-08-29T13:08:11.451Z,972
2017-08-29T13:09:11.502Z,964
2017-08-29T13:10:11.568Z,960
2017-08-29T13:11:11.614Z,952
2017-08-29T13:12:11.668Z,948
2017-08-29T13:13:11.414Z,944
2017-08-29T13:14:11.469Z,936
2017-08-29T13:15:11.520Z,932
2017-08-29T13:16:11.897Z,928
2017-08-29T13:17:11.958Z,924
2017-08-29T13:18:12.010Z,916
2017-08-29T13:19:12.072Z,908
2017-08-29T13:20:11.807Z,900
2017-08-29T13:21:12.185Z,896
2017-08-29T13:22:12.232Z,888
2017-08-29T13:23:12.296Z,880
2017-08-29T13:24:12.040Z,876
2017-08-29T13:25:12.394Z,868
2017-08-29T13:26:12.449Z,864
2017-08-29T13:27:12.217Z,860
2017-08-29T13:28:12.265Z,856
2017-08-29T13:29:12.627Z,848
2017-08-29T13:30:12.682Z,836
2017-08-29T13:31:12.748Z,840
2017-08-29T13:32:12.786Z,832
2017-08-29T13:33:12.860Z,828
2017-08-29T13:34:12.911Z,816
2017-08-29T13:35:12.971Z,812
2017-08-29T13:36:12.709Z,808
2017-08-29T13:37:13.084Z,800
2017-08-29T13:38:12.514Z,792
2017-08-29T13:39:13.197Z,788
2017-08-29T13:40:13.255Z,780
2017-08-29T13:41:13.312Z,776
2017-08-29T13:42:13.375Z,768
2017-08-29T13:43:13.420Z,760
2017-08-29T13:44:13.471Z,752
2017-08-29T13:45:13.218Z,748
2017-08-29T13:46:13.590Z,744
2017-08-29T13:47:13.648Z,736
2017-08-29T13:48:13.702Z,732
2017-08-29T13:49:13.755Z,724
2017-08-29T13:50:13.827Z,720
2017-08-29T13:51:13.873Z,712
2017-08-29T13:52:13.938Z,708
2017-08-29T13:53:13.675Z,700
2017-08-29T13:54:14.041Z,696
2017-08-29T13:55:14.093Z,688
2017-08-29T13:56:14.161Z,680
2017-08-29T13:57:14.208Z,676
2017-08-29T13:58:14.264Z,668
2017-08-29T13:59:14.319Z,664